Lost River, West Virginia
Current Conditions -  °F | °C
As of 9:35 AM on Tuesday 27 Jan 2015 (Local Time) from K8W2 Reporting Station
Overcast Overcast  
Wind Chill: 26°   Ceiling: 4900
Heat Index: 26°   Visibility: 10mi
Dew Point: 17°   Wind: 3mph
Humidity: 69%   Direction: 350°N
Pressure: 29.84"   Gusts: NA
Location:  38.9097°N, 78.8027°W
Report Text: K8W2 271435Z AUTO 35003KT 10SM BKN049 OVC070 M03/M08 A2984 RMK AO1 T10321082
Loading
Personal Weather Stations






























Interactive Weather Map New forecast layout! Learn more

10-Day Weather Forecast

Advertisements
Track Severe Weather on mobile